createdAt,value
2023-02-01T00:02:03.203Z,100354.59
2023-02-01T00:04:31.476Z,100342.41
2023-02-01T00:06:58.658Z,100335.44
2023-02-01T00:09:25.839Z,100333.75
2023-02-01T00:11:53.441Z,100323.69
2023-02-01T00:14:20.650Z,100319.66
2023-02-01T00:16:47.867Z,100334.31
2023-02-01T00:19:16.002Z,100330.13
2023-02-01T00:21:44.825Z,100342.00
2023-02-01T00:24:12.614Z,100327.28
2023-02-01T00:26:44.757Z,100327.25
2023-02-01T00:29:14.856Z,100326.22
2023-02-01T00:31:42.217Z,100319.28
2023-02-01T00:34:12.751Z,100328.69
2023-02-01T00:36:40.170Z,100322.59
2023-02-01T00:39:07.432Z,100328.72
2023-02-01T00:41:34.794Z,100326.94
2023-02-01T00:44:02.469Z,100332.13
2023-02-01T00:46:29.796Z,100329.53
2023-02-01T00:48:57.026Z,100339.94
2023-02-01T00:51:27.056Z,100338.28
2023-02-01T00:53:54.442Z,100343.56
2023-02-01T00:56:21.691Z,100338.13
2023-02-01T00:58:49.093Z,100349.44
2023-02-01T01:01:19.476Z,100351.41
2023-02-01T01:03:51.464Z,100348.97
2023-02-01T01:06:21.942Z,100357.38
2023-02-01T01:08:49.192Z,100351.63
2023-02-01T01:11:19.433Z,100347.44
2023-02-01T01:13:50.612Z,100339.69
2023-02-01T01:16:18.615Z,100338.03
2023-02-01T01:18:45.952Z,100348.72
2023-02-01T01:21:15.078Z,100338.28
2023-02-01T01:23:42.528Z,100336.59
2023-02-01T01:26:14.492Z,100330.66
2023-02-01T01:28:41.635Z,100325.50
2023-02-01T01:31:13.268Z,100322.00
2023-02-01T01:33:40.919Z,100321.22
2023-02-01T01:36:11.996Z,100327.31
2023-02-01T01:38:42.167Z,100313.56
2023-02-01T01:41:13.058Z,100302.31
2023-02-01T01:43:53.728Z,100304.84
2023-02-01T01:46:24.075Z,100303.06
2023-02-01T01:48:59.323Z,100310.81
2023-02-01T01:51:28.714Z,100308.88
2023-02-01T01:54:10.529Z,100304.59
2023-02-01T01:56:37.648Z,100313.19
2023-02-01T01:59:06.466Z,100301.84
2023-02-01T02:01:33.707Z,100305.38
2023-02-01T02:04:01.121Z,100301.84
2023-02-01T02:06:58.752Z,100309.78
2023-02-01T02:09:25.872Z,100292.16
2023-02-01T02:11:53.001Z,100306.06
2023-02-01T02:14:21.074Z,100292.16
2023-02-01T02:17:06.441Z,100310.53
2023-02-01T02:20:05.927Z,100313.84
2023-02-01T02:23:00.755Z,100315.59
2023-02-01T02:25:48.120Z,100299.84
2023-02-01T02:28:27.237Z,100299.13
2023-02-01T02:31:27.736Z,100283.50
2023-02-01T02:34:15.942Z,100287.66
2023-02-01T02:37:01.702Z,100299.16
2023-02-01T02:39:55.182Z,100282.44
2023-02-01T02:42:49.911Z,100305.28
2023-02-01T02:45:53.906Z,100282.63
2023-02-01T02:48:30.538Z,100280.75
2023-02-01T02:51:22.959Z,100288.56
2023-02-01T02:54:26.730Z,100280.75
2023-02-01T02:57:13.345Z,100281.75
2023-02-01T02:59:59.975Z,100286.13
2023-02-01T03:02:47.184Z,100286.94
2023-02-01T03:08:04.480Z,100275.28
2023-02-01T03:10:54.577Z,100273.78
2023-02-01T03:13:50.162Z,100269.66
2023-02-01T03:16:29.000Z,100269.41
2023-02-01T03:19:34.349Z,100255.47
2023-02-01T03:22:08.998Z,100240.81
2023-02-01T03:24:38.711Z,100252.69
2023-02-01T03:27:20.678Z,100245.84
2023-02-01T03:30:06.705Z,100246.88
2023-02-01T03:32:55.278Z,100245.97
2023-02-01T03:35:48.645Z,100229.19
2023-02-01T03:38:46.319Z,100222.41
2023-02-01T03:41:20.161Z,100228.59
2023-02-01T03:44:00.113Z,100224.22
2023-02-01T03:46:34.106Z,100213.88
2023-02-01T03:49:04.789Z,100216.50
2023-02-01T03:51:33.514Z,100218.25
2023-02-01T03:54:02.938Z,100222.41
2023-02-01T03:56:30.909Z,100221.63
2023-02-01T03:59:01.624Z,100213.56
2023-02-01T04:01:31.508Z,100217.91
2023-02-01T04:03:59.414Z,100217.00
2023-02-01T04:06:26.491Z,100217.03
2023-02-01T04:08:53.794Z,100219.53
2023-02-01T04:11:20.857Z,100223.16
2023-02-01T04:13:48.172Z,100207.16
2023-02-01T04:16:15.349Z,100220.00
2023-02-01T04:18:42.499Z,100243.53
2023-02-01T04:21:09.674Z,100207.00
2023-02-01T04:23:37.669Z,100214.63
2023-02-01T04:26:05.575Z,100230.22
2023-02-01T04:28:32.724Z,100221.50
2023-02-01T04:30:59.982Z,100203.09
2023-02-01T04:33:27.193Z,100229.78
2023-02-01T04:35:54.396Z,100217.69
2023-02-01T04:38:22.152Z,100206.41
2023-02-01T04:40:50.535Z,100203.00
2023-02-01T04:43:18.470Z,100216.88
2023-02-01T04:45:49.657Z,100226.34
2023-02-01T04:48:17.983Z,100215.69
2023-02-01T04:50:48.300Z,100209.63
2023-02-01T04:53:16.309Z,100206.00
2023-02-01T04:55:43.987Z,100210.34
2023-02-01T04:58:11.513Z,100198.84
2023-02-01T05:00:38.783Z,100207.50
2023-02-01T05:03:06.142Z,100200.22
2023-02-01T05:05:33.401Z,100201.22
2023-02-01T05:08:00.578Z,100182.09
2023-02-01T05:10:27.742Z,100189.88
2023-02-01T05:13:13.253Z,100169.88
2023-02-01T05:15:40.426Z,100177.63
2023-02-01T05:18:07.591Z,100176.66
2023-02-01T05:20:34.916Z,100175.66
2023-02-01T05:23:02.093Z,100174.72
2023-02-01T05:25:29.251Z,100173.03
2023-02-01T05:27:56.424Z,100176.47
2023-02-01T05:30:23.747Z,100167.81
2023-02-01T05:32:52.470Z,100166.69
2023-02-01T05:35:20.258Z,100162.34
2023-02-01T05:37:47.599Z,100162.16
2023-02-01T05:40:14.739Z,100173.50
2023-02-01T05:42:41.946Z,100162.06
2023-02-01T05:45:09.706Z,100177.84
2023-02-01T05:47:36.955Z,100163.91
2023-02-01T05:50:05.889Z,100156.00
2023-02-01T05:52:33.245Z,100145.72
2023-02-01T05:55:00.391Z,100149.13
2023-02-01T05:57:27.631Z,100142.09
2023-02-01T05:59:54.779Z,100141.94
2023-02-01T06:02:22.716Z,100133.59
2023-02-01T06:04:49.853Z,100138.56
2023-02-01T06:07:17.176Z,100153.09
2023-02-01T06:09:44.260Z,100135.03
2023-02-01T06:12:11.407Z,100152.38
2023-02-01T06:14:38.792Z,100143.78
2023-02-01T06:17:07.169Z,100138.56
2023-02-01T06:19:34.330Z,100132.56
2023-02-01T06:22:01.580Z,100138.75
2023-02-01T06:24:28.834Z,100130.13
2023-02-01T06:26:55.992Z,100150.34
2023-02-01T06:29:23.259Z,100140.91
2023-02-01T06:31:50.544Z,100133.28
2023-02-01T06:34:17.752Z,100135.16
2023-02-01T06:36:44.857Z,100139.44
2023-02-01T06:39:16.652Z,100125.66
2023-02-01T06:41:50.078Z,100135.09
2023-02-01T06:44:17.771Z,100129.13
2023-02-01T06:46:44.974Z,100132.09
2023-02-01T06:49:12.117Z,100136.44
2023-02-01T06:51:39.377Z,100137.09
2023-02-01T06:54:06.524Z,100111.28
2023-02-01T06:56:33.738Z,100133.78
2023-02-01T06:59:01.446Z,100109.41
2023-02-01T07:01:28.540Z,100105.88
2023-02-01T07:03:55.714Z,100102.38
2023-02-01T07:06:22.986Z,100129.28
2023-02-01T07:08:50.168Z,100096.91
2023-02-01T07:11:19.277Z,100090.72
2023-02-01T07:13:46.637Z,100095.22
2023-02-01T07:16:18.870Z,100102.19
2023-02-01T07:18:46.477Z,100101.19
2023-02-01T07:21:13.912Z,100095.16
2023-02-01T07:23:41.110Z,100119.75
2023-02-01T07:26:10.671Z,100113.47
2023-02-01T07:28:38.692Z,100084.84
2023-02-01T07:31:14.492Z,100082.84
2023-02-01T07:33:41.531Z,100068.25
2023-02-01T07:36:12.745Z,100099.81
2023-02-01T07:38:39.851Z,100075.47
2023-02-01T07:41:07.384Z,100060.88
2023-02-01T07:43:35.367Z,100067.84
2023-02-01T07:46:04.055Z,100065.91
2023-02-01T07:48:32.594Z,100066.59
2023-02-01T07:51:05.342Z,100062.38
2023-02-01T07:53:33.809Z,100073.03
2023-02-01T07:56:01.785Z,100066.22
2023-02-01T07:58:29.381Z,100081.97
2023-02-01T08:01:15.953Z,100075.53
2023-02-01T08:03:43.167Z,100075.72
2023-02-01T08:06:10.394Z,100076.00
2023-02-01T08:08:37.520Z,100089.25
2023-02-01T08:11:06.418Z,100068.13
2023-02-01T08:13:36.448Z,100079.16
2023-02-01T08:16:06.132Z,100068.19
2023-02-01T08:18:34.166Z,100075.44
2023-02-01T08:21:09.515Z,100069.78
2023-02-01T08:23:37.773Z,100084.06
2023-02-01T08:26:19.539Z,100072.16
2023-02-01T08:28:49.801Z,100080.03
2023-02-01T08:31:19.105Z,100070.59
2023-02-01T08:33:51.015Z,100085.28
2023-02-01T08:36:18.264Z,100080.25
2023-02-01T08:38:45.418Z,100080.16
2023-02-01T08:41:14.953Z,100074.09
2023-02-01T08:43:42.478Z,100089.16
2023-02-01T08:46:10.071Z,100086.63
2023-02-01T08:48:37.698Z,100093.44
2023-02-01T08:51:10.791Z,100106.50
2023-02-01T08:53:38.865Z,100091.91
2023-02-01T08:56:07.080Z,100085.88
2023-02-01T08:58:34.700Z,100094.53
2023-02-01T09:01:14.208Z,100097.94
2023-02-01T09:03:41.718Z,100104.09
2023-02-01T09:06:13.762Z,100095.38
2023-02-01T09:08:41.776Z,100112.69
2023-02-01T09:11:13.476Z,100102.22
2023-02-01T09:13:40.654Z,100103.97
2023-02-01T09:16:08.127Z,100107.31
2023-02-01T09:18:35.416Z,100113.41
2023-02-01T09:21:08.647Z,100102.97
2023-02-01T09:23:35.972Z,100112.28
2023-02-01T09:26:04.679Z,100121.72
2023-02-01T09:28:32.083Z,100129.34
2023-02-01T09:31:00.078Z,100127.56
2023-02-01T09:33:28.283Z,100116.06
2023-02-01T09:36:03.987Z,100127.38
2023-02-01T09:38:32.926Z,100139.38
2023-02-01T09:41:00.118Z,100151.41
2023-02-01T09:43:40.876Z,100145.19
2023-02-01T09:46:32.521Z,100153.97
2023-02-01T09:49:06.787Z,100172.19
2023-02-01T09:51:45.329Z,100157.34
2023-02-01T09:54:20.648Z,100160.97
2023-02-01T09:56:56.140Z,100162.69
2023-02-01T09:59:52.047Z,100166.16
2023-02-01T10:02:22.899Z,100157.31
2023-02-01T10:04:50.547Z,100160.50
2023-02-01T10:07:29.205Z,100159.75
2023-02-01T10:09:56.232Z,100171.09
2023-02-01T10:12:44.687Z,100156.31
2023-02-01T10:15:20.997Z,100184.34
2023-02-01T10:18:11.851Z,100165.41
2023-02-01T10:21:10.845Z,100175.97
2023-02-01T10:24:17.723Z,100162.16
2023-02-01T10:27:06.700Z,100173.44
2023-02-01T10:29:42.900Z,100176.72
2023-02-01T10:32:23.170Z,100167.81
2023-02-01T10:34:58.488Z,100173.81
2023-02-01T10:37:30.180Z,100172.06
2023-02-01T10:39:58.570Z,100172.78
2023-02-01T10:42:28.033Z,100169.81
2023-02-01T10:44:57.589Z,100172.44
2023-02-01T10:47:24.959Z,100163.56
2023-02-01T10:50:18.134Z,100178.22
2023-02-01T10:52:57.899Z,100172.34
2023-02-01T10:55:40.796Z,100205.34
2023-02-01T10:58:16.920Z,100183.69
2023-02-01T11:00:52.840Z,100181.09
2023-02-01T11:03:43.634Z,100162.00
2023-02-01T11:06:11.983Z,100173.84
2023-02-01T11:09:00.741Z,100157.38
2023-02-01T11:11:30.031Z,100141.75
2023-02-01T11:14:02.244Z,100150.91
2023-02-01T11:16:56.064Z,100144.81
2023-02-01T11:19:23.200Z,100149.09
2023-02-01T11:21:52.479Z,100149.16
2023-02-01T11:24:33.824Z,100150.72
2023-02-01T11:27:06.702Z,100140.19
2023-02-01T11:29:39.656Z,100128.50
2023-02-01T11:32:09.240Z,100132.28
2023-02-01T11:34:43.873Z,100136.84
2023-02-01T11:37:32.320Z,100113.72
2023-02-01T11:40:01.449Z,100115.22
2023-02-01T11:42:29.566Z,100120.97
2023-02-01T11:45:21.168Z,100111.13
2023-02-01T11:47:52.975Z,100111.97
2023-02-01T11:50:26.907Z,100093.00
2023-02-01T11:53:06.279Z,100098.16
2023-02-01T11:55:48.374Z,100104.84
2023-02-01T11:58:46.141Z,100090.72
2023-02-01T12:01:47.502Z,100092.22
2023-02-01T12:04:42.374Z,100100.69
2023-02-01T12:07:27.299Z,100116.69
2023-02-01T12:10:05.837Z,100090.47
2023-02-01T12:12:45.146Z,100073.44
2023-02-01T12:15:24.725Z,100079.22
2023-02-01T12:18:22.980Z,100084.22
2023-02-01T12:21:04.800Z,100085.28
2023-02-01T12:23:52.888Z,100080.22
2023-02-01T12:26:31.708Z,100063.00
2023-02-01T12:29:09.150Z,100070.63
2023-02-01T12:31:57.808Z,100067.38
2023-02-01T12:34:48.898Z,100051.97
2023-02-01T12:37:56.469Z,100045.03
2023-02-01T12:40:40.602Z,100034.50
2023-02-01T12:43:22.396Z,100031.06
2023-02-01T12:45:55.648Z,100030.97
2023-02-01T12:48:28.004Z,100032.81
2023-02-01T12:53:48.986Z,100012.47
2023-02-01T12:56:26.389Z,100002.75
2023-02-01T12:59:01.828Z,100000.13
2023-02-01T13:01:40.804Z,100004.31
2023-02-01T13:04:26.733Z,100000.63
2023-02-01T13:07:04.324Z,99989.47
2023-02-01T13:09:41.876Z,99976.97
2023-02-01T13:12:26.281Z,99993.69
2023-02-01T13:14:58.593Z,99992.50
2023-02-01T13:17:29.257Z,100023.59
2023-02-01T13:20:08.197Z,100029.88
2023-02-01T13:22:44.445Z,100052.31
2023-02-01T13:25:11.417Z,100049.84
2023-02-01T13:27:38.924Z,100047.94
2023-02-01T13:30:09.533Z,100041.03
2023-02-01T13:33:53.774Z,100033.28
2023-02-01T13:35:57.096Z,100023.59
2023-02-01T13:38:33.359Z,100018.38
2023-02-01T13:41:00.726Z,100007.09
2023-02-01T13:43:30.329Z,100023.69
2023-02-01T13:46:03.028Z,99999.03
2023-02-01T13:48:49.539Z,99995.50
2023-02-01T13:51:17.230Z,100009.34
2023-02-01T13:53:49.302Z,99992.03
2023-02-01T13:56:19.498Z,99987.03
2023-02-01T13:58:49.125Z,99973.06
2023-02-01T14:01:22.567Z,99974.59
2023-02-01T14:04:00.790Z,99982.53
2023-02-01T14:06:28.569Z,99979.84
2023-02-01T14:09:13.430Z,99971.06
2023-02-01T14:11:52.676Z,99972.94
2023-02-01T14:14:19.976Z,99991.28
2023-02-01T14:16:56.148Z,99987.97
2023-02-01T14:19:29.169Z,99974.44
2023-02-01T14:22:01.406Z,99962.53
2023-02-01T14:24:29.752Z,99943.78
2023-02-01T14:26:58.898Z,99946.47
2023-02-01T14:29:37.956Z,99939.72
2023-02-01T14:32:17.965Z,99937.38
2023-02-01T14:34:48.392Z,99932.03
2023-02-01T14:37:18.436Z,99928.56
2023-02-01T14:39:45.711Z,99925.81
2023-02-01T14:42:34.280Z,99925.22
2023-02-01T14:45:23.412Z,99919.53
2023-02-01T14:48:06.170Z,99923.13
2023-02-01T14:50:33.768Z,99918.75
2023-02-01T14:53:15.996Z,99909.50
2023-02-01T14:55:45.005Z,99917.38
2023-02-01T14:58:21.730Z,99902.03
2023-02-01T15:01:01.481Z,99903.72
2023-02-01T15:03:40.628Z,99889.91
2023-02-01T15:06:23.480Z,99883.66
2023-02-01T15:08:55.640Z,99880.16
2023-02-01T15:11:23.004Z,99886.91
2023-02-01T15:13:54.807Z,99892.13
2023-02-01T15:16:25.264Z,99906.88
2023-02-01T15:19:10.532Z,99901.50
2023-02-01T15:21:47.245Z,99900.94
2023-02-01T15:24:31.296Z,99900.53
2023-02-01T15:27:05.528Z,99907.16
2023-02-01T15:29:39.217Z,99897.97
2023-02-01T15:32:07.841Z,99938.28
2023-02-01T15:34:50.883Z,99906.16
2023-02-01T15:37:19.435Z,99917.94
2023-02-01T15:40:11.555Z,99928.03
2023-02-01T15:42:51.201Z,99918.78
2023-02-01T15:45:20.197Z,99906.34
2023-02-01T15:47:50.020Z,99926.47
2023-02-01T15:50:22.329Z,99934.78
2023-02-01T15:52:52.395Z,99923.28
2023-02-01T15:55:38.389Z,99934.25
2023-02-01T15:58:10.150Z,99939.19
2023-02-01T16:00:46.513Z,99942.34
2023-02-01T16:03:44.016Z,99944.50
2023-02-01T16:06:29.387Z,99984.13
2023-02-01T16:09:03.582Z,99969.13
2023-02-01T16:11:42.349Z,99951.56
2023-02-01T16:14:09.532Z,99962.56
2023-02-01T16:16:40.109Z,99957.78
2023-02-01T16:19:08.615Z,99970.75
2023-02-01T16:21:36.297Z,99958.81
2023-02-01T16:24:05.227Z,99962.22
2023-02-01T16:26:33.504Z,99954.00
2023-02-01T16:29:04.067Z,99953.16
2023-02-01T16:31:33.800Z,99942.63
2023-02-01T16:34:01.065Z,99946.28
2023-02-01T16:36:29.361Z,99971.56
2023-02-01T16:38:56.830Z,99960.28
2023-02-01T16:41:26.150Z,99959.22
2023-02-01T16:43:55.266Z,99969.66
2023-02-01T16:46:26.359Z,99963.63
2023-02-01T16:48:56.062Z,99976.63
2023-02-01T16:51:25.325Z,99973.09
2023-02-01T16:53:54.819Z,99994.03
2023-02-01T16:56:30.730Z,99991.38
2023-02-01T16:58:58.785Z,99994.03
2023-02-01T17:01:26.702Z,99999.25
2023-02-01T17:03:54.394Z,99999.06
2023-02-01T17:06:23.845Z,100007.38
2023-02-01T17:08:53.539Z,99994.50
2023-02-01T17:11:21.004Z,100000.44
2023-02-01T17:13:48.249Z,99999.44
2023-02-01T17:16:31.170Z,100008.88
2023-02-01T17:19:05.393Z,100014.19
2023-02-01T17:21:39.945Z,100000.28
2023-02-01T17:24:07.298Z,99999.38
2023-02-01T17:26:34.675Z,99990.53
2023-02-01T17:29:02.196Z,100003.38
2023-02-01T17:31:29.552Z,99999.88
2023-02-01T17:33:56.767Z,100002.19
2023-02-01T17:36:24.217Z,99997.84
2023-02-01T17:39:04.741Z,100002.00
2023-02-01T17:41:32.878Z,100000.34
2023-02-01T17:44:00.449Z,100009.84
2023-02-01T17:46:28.333Z,100006.34
2023-02-01T17:48:55.788Z,100023.50
2023-02-01T17:51:25.261Z,99993.72
2023-02-01T17:53:52.669Z,100006.69
2023-02-01T17:56:22.222Z,100027.53
2023-02-01T17:58:49.928Z,100010.91
2023-02-01T18:01:23.559Z,100023.75
2023-02-01T18:03:51.586Z,100008.13
2023-02-01T18:06:21.303Z,100026.34
2023-02-01T18:08:49.008Z,100027.75
2023-02-01T18:11:18.590Z,100025.91
2023-02-01T18:13:46.392Z,100030.09
2023-02-01T18:16:24.737Z,100020.47
2023-02-01T18:18:52.449Z,100023.38
2023-02-01T18:21:21.629Z,100027.34
2023-02-01T18:23:49.687Z,100027.25
2023-02-01T18:26:18.233Z,100039.34
2023-02-01T18:28:45.597Z,100038.47
2023-02-01T18:31:26.874Z,100038.47
2023-02-01T18:33:55.441Z,100036.63
2023-02-01T18:36:22.727Z,100038.16
2023-02-01T18:38:50.859Z,100037.31
2023-02-01T18:41:21.602Z,100034.69
2023-02-01T18:43:49.534Z,100036.38
2023-02-01T18:46:17.319Z,100040.56
2023-02-01T18:48:44.700Z,100031.88
2023-02-01T18:51:13.546Z,100037.88
2023-02-01T18:53:40.909Z,100036.09
2023-02-01T18:56:11.561Z,100050.81
2023-02-01T18:58:39.258Z,100042.88
2023-02-01T19:01:09.263Z,100066.13
2023-02-01T19:03:44.693Z,100053.03
2023-02-01T19:06:18.063Z,100041.78
2023-02-01T19:08:46.201Z,100053.78
2023-02-01T19:11:13.443Z,100033.88
2023-02-01T19:13:41.100Z,100070.78
2023-02-01T19:16:12.900Z,100061.22
2023-02-01T19:18:40.424Z,100056.09
2023-02-01T19:21:09.783Z,100073.41
2023-02-01T19:23:40.731Z,100062.06
2023-02-01T19:26:12.386Z,100063.00
2023-02-01T19:28:39.843Z,100069.88
2023-02-01T19:31:08.631Z,100079.09
2023-02-01T19:33:36.104Z,100074.88
2023-02-01T19:36:05.965Z,100061.00
2023-02-01T19:38:34.084Z,100061.84
2023-02-01T19:41:01.582Z,100071.47
2023-02-01T19:43:28.871Z,100063.63
2023-02-01T19:45:57.400Z,100066.81
2023-02-01T19:48:25.173Z,100088.53
2023-02-01T19:50:52.327Z,100062.75
2023-02-01T19:53:24.549Z,100070.50
2023-02-01T19:55:51.664Z,100083.38
2023-02-01T19:58:18.800Z,100059.97
2023-02-01T20:00:45.017Z,100078.97
2023-02-01T20:03:12.116Z,100077.13
2023-02-01T20:05:39.223Z,100065.59
2023-02-01T20:08:06.406Z,100066.63
2023-02-01T20:10:33.515Z,100067.47
2023-02-01T20:13:00.645Z,100059.56
2023-02-01T20:15:28.293Z,100065.59
2023-02-01T20:17:55.497Z,100069.13
2023-02-01T20:20:23.065Z,100061.31
2023-02-01T20:22:51.883Z,100081.03
2023-02-01T20:25:19.030Z,100066.34
2023-02-01T20:27:47.032Z,100071.00
2023-02-01T20:30:19.782Z,100070.16
2023-02-01T20:32:49.605Z,100064.09
2023-02-01T20:35:17.520Z,100078.13
2023-02-01T20:37:45.026Z,100062.44
2023-02-01T20:40:12.633Z,100101.75
2023-02-01T20:42:41.152Z,100081.66
2023-02-01T20:45:08.788Z,100067.00
2023-02-01T20:47:36.105Z,100086.97
2023-02-01T20:50:03.628Z,100069.78
2023-02-01T20:52:30.727Z,100088.94
2023-02-01T20:54:57.952Z,100090.69
2023-02-01T20:57:25.167Z,100095.88
2023-02-01T20:59:52.285Z,100109.91
2023-02-01T21:02:19.439Z,100080.28
2023-02-01T21:04:46.618Z,100102.28
2023-02-01T21:07:14.245Z,100074.50
2023-02-01T21:09:43.163Z,100084.09
2023-02-01T21:12:10.448Z,100089.25
2023-02-01T21:14:37.609Z,100084.91
2023-02-01T21:17:04.824Z,100084.91
2023-02-01T21:19:42.837Z,100085.00
2023-02-01T21:22:13.871Z,100079.91
2023-02-01T21:24:41.779Z,100089.72
2023-02-01T21:27:09.699Z,100099.16
2023-02-01T21:29:36.817Z,100094.13
2023-02-01T21:32:04.775Z,100095.00
2023-02-01T21:34:32.011Z,100091.75
2023-02-01T21:36:59.513Z,100094.41
2023-02-01T21:39:29.468Z,100110.03
2023-02-01T21:42:14.613Z,100101.38
2023-02-01T21:44:41.929Z,100103.66
2023-02-01T21:47:10.921Z,100110.97
2023-02-01T21:49:38.055Z,100104.16
2023-02-01T21:52:05.568Z,100097.38
2023-02-01T21:54:32.726Z,100106.94
2023-02-01T21:56:59.971Z,100103.50
2023-02-01T21:59:27.236Z,100117.41
2023-02-01T22:01:54.325Z,100113.97
2023-02-01T22:04:21.461Z,100104.34
2023-02-01T22:06:48.602Z,100103.47
2023-02-01T22:09:21.524Z,100102.59
2023-02-01T22:11:49.345Z,100095.59
2023-02-01T22:14:16.831Z,100135.53
2023-02-01T22:16:44.516Z,100106.91
2023-02-01T22:19:14.805Z,100107.69
2023-02-01T22:21:43.384Z,100105.84
2023-02-01T22:24:12.009Z,100112.63
2023-02-01T22:26:39.933Z,100108.38
2023-02-01T22:29:08.163Z,100123.59
2023-02-01T22:31:35.697Z,100115.84
2023-02-01T22:34:03.085Z,100129.59
2023-02-01T22:36:30.217Z,100100.91
2023-02-01T22:38:58.148Z,100093.81
2023-02-01T22:41:25.239Z,100115.50
2023-02-01T22:43:52.337Z,100103.50
2023-02-01T22:46:22.865Z,100109.41
2023-02-01T22:48:50.038Z,100125.91
2023-02-01T22:51:22.873Z,100108.53
2023-02-01T22:53:56.998Z,100105.09
2023-02-01T22:56:25.404Z,100100.91
2023-02-01T22:59:00.751Z,100117.31
2023-02-01T23:01:28.241Z,100107.59
2023-02-01T23:03:59.979Z,100104.19
2023-02-01T23:06:27.995Z,100102.47
2023-02-01T23:08:56.953Z,100088.16
2023-02-01T23:11:24.889Z,100090.00
2023-02-01T23:13:52.131Z,100069.19
2023-02-01T23:16:20.195Z,100063.09
2023-02-01T23:19:16.252Z,100077.69
2023-02-01T23:21:43.503Z,100051.75
2023-02-01T23:24:11.118Z,100062.31
2023-02-01T23:26:38.361Z,100076.25
2023-02-01T23:29:05.744Z,100075.25
2023-02-01T23:31:34.182Z,100046.53
2023-02-01T23:34:02.979Z,100051.84
2023-02-01T23:36:32.003Z,100057.22
2023-02-01T23:39:00.216Z,100048.56
2023-02-01T23:41:29.884Z,100039.81
2023-02-01T23:43:59.976Z,100032.06
2023-02-01T23:46:38.848Z,100023.13
2023-02-01T23:49:07.491Z,100014.75
2023-02-01T23:51:34.631Z,100031.00
2023-02-01T23:54:02.084Z,100021.44
2023-02-01T23:56:40.650Z,100018.81
2023-02-01T23:59:14.521Z,100010.56
